createdAt,value
2023-04-26T00:02:25.019Z,4.36
2023-04-26T00:05:02.535Z,4.39
2023-04-26T00:07:30.767Z,4.46
2023-04-26T00:09:58.179Z,4.36
2023-04-26T00:12:25.915Z,4.41
2023-04-26T00:14:53.300Z,4.43
2023-04-26T00:17:20.760Z,4.43
2023-04-26T00:19:48.258Z,4.40
2023-04-26T00:22:15.759Z,4.32
2023-04-26T00:24:43.614Z,4.34
2023-04-26T00:27:11.227Z,4.33
2023-04-26T00:29:38.985Z,4.30
2023-04-26T00:32:06.887Z,4.29
2023-04-26T00:34:36.126Z,4.21
2023-04-26T00:37:04.929Z,4.21
2023-04-26T00:39:32.354Z,4.24
2023-04-26T00:42:00.004Z,4.24
2023-04-26T00:44:27.493Z,4.24
2023-04-26T00:46:56.197Z,4.24
2023-04-26T00:49:26.185Z,4.19
2023-04-26T00:51:54.156Z,4.21
2023-04-26T00:54:22.000Z,4.21
2023-04-26T00:56:52.249Z,4.22
2023-04-26T00:59:21.387Z,4.18
2023-04-26T01:01:49.503Z,4.17
2023-04-26T01:04:18.118Z,4.18
2023-04-26T01:06:46.535Z,3.99
2023-04-26T01:09:15.932Z,4.06
2023-04-26T01:11:44.544Z,4.01
2023-04-26T01:14:12.323Z,3.95
2023-04-26T01:16:41.065Z,3.97
2023-04-26T01:19:15.462Z,4.01
2023-04-26T01:21:43.773Z,4.01
2023-04-26T01:24:12.815Z,3.94
2023-04-26T01:26:46.714Z,3.94
2023-04-26T01:29:18.719Z,3.85
2023-04-26T01:31:47.143Z,3.80
2023-04-26T01:34:15.331Z,3.71
2023-04-26T01:36:42.905Z,3.59
2023-04-26T01:39:10.542Z,3.59
2023-04-26T01:41:38.084Z,3.56
2023-04-26T01:44:05.726Z,3.49
2023-04-26T01:46:33.414Z,3.41
2023-04-26T01:49:01.001Z,3.39
2023-04-26T01:51:30.353Z,3.35
2023-04-26T01:53:57.798Z,3.36
2023-04-26T01:56:26.121Z,3.36
2023-04-26T01:58:56.547Z,3.33
2023-04-26T02:01:24.436Z,3.27
2023-04-26T02:03:52.728Z,3.27
2023-04-26T02:06:21.633Z,3.29
2023-04-26T02:08:49.740Z,3.27
2023-04-26T02:11:17.525Z,3.27
2023-04-26T02:13:45.061Z,3.27
2023-04-26T02:16:12.705Z,3.25
2023-04-26T02:18:41.713Z,3.16
2023-04-26T02:21:12.107Z,3.14
2023-04-26T02:23:39.711Z,3.11
2023-04-26T02:26:07.207Z,3.11
2023-04-26T02:28:34.937Z,3.10
2023-04-26T02:31:03.179Z,3.08
2023-04-26T02:33:31.487Z,3.09
2023-04-26T02:35:59.726Z,3.15
2023-04-26T02:38:27.543Z,3.09
2023-04-26T02:41:03.402Z,3.10
2023-04-26T02:43:31.876Z,3.08
2023-04-26T02:46:01.080Z,3.08
2023-04-26T02:48:28.831Z,3.06
2023-04-26T02:50:57.232Z,3.06
2023-04-26T02:53:25.032Z,3.04
2023-04-26T02:55:52.399Z,3.05
2023-04-26T02:58:20.013Z,3.09
2023-04-26T03:00:48.476Z,3.08
2023-04-26T03:03:16.779Z,3.08
2023-04-26T03:05:46.385Z,3.09
2023-04-26T03:08:14.721Z,3.07
2023-04-26T03:10:42.222Z,3.07
2023-04-26T03:13:09.776Z,3.14
2023-04-26T03:15:37.227Z,3.18
2023-04-26T03:18:05.012Z,3.17
2023-04-26T03:20:32.574Z,3.22
2023-04-26T03:23:00.361Z,3.22
2023-04-26T03:25:27.873Z,3.17
2023-04-26T03:27:56.749Z,3.18
2023-04-26T03:30:24.337Z,3.21
2023-04-26T03:32:52.921Z,3.21
2023-04-26T03:35:20.653Z,3.20
2023-04-26T03:37:48.242Z,3.21
2023-04-26T03:40:18.240Z,3.24
2023-04-26T03:42:46.156Z,3.22
2023-04-26T03:45:13.655Z,3.22
2023-04-26T03:47:41.215Z,3.22
2023-04-26T03:50:09.080Z,3.26
2023-04-26T03:52:36.648Z,3.28
2023-04-26T03:55:06.022Z,3.30
2023-04-26T03:57:33.614Z,3.25
2023-04-26T04:00:01.924Z,3.32
2023-04-26T04:02:31.583Z,3.41
2023-04-26T04:04:59.488Z,3.58
2023-04-26T04:07:27.109Z,3.52
2023-04-26T04:09:54.961Z,3.55
2023-04-26T04:12:23.239Z,3.61
2023-04-26T04:14:52.650Z,3.63
2023-04-26T04:17:20.402Z,3.71
2023-04-26T04:19:48.208Z,3.82
2023-04-26T04:22:16.690Z,3.90
2023-04-26T04:24:45.008Z,4.36
2023-04-26T04:27:12.533Z,4.91
2023-04-26T04:29:42.307Z,5.41
2023-04-26T04:32:10.260Z,5.98
2023-04-26T04:34:38.062Z,6.43
2023-04-26T04:37:05.675Z,5.92
2023-04-26T04:39:33.674Z,5.64
2023-04-26T04:42:01.228Z,5.23
2023-04-26T04:44:29.222Z,4.88
2023-04-26T04:46:58.533Z,4.71
2023-04-26T04:49:26.118Z,4.65
2023-04-26T04:51:54.141Z,5.46
2023-04-26T04:54:21.673Z,6.08
2023-04-26T04:56:49.299Z,6.85
2023-04-26T04:59:17.284Z,7.51
2023-04-26T05:01:44.986Z,7.76
2023-04-26T05:04:15.427Z,8.25
2023-04-26T05:06:43.848Z,8.91
2023-04-26T05:09:11.580Z,9.07
2023-04-26T05:11:39.447Z,9.37
2023-04-26T05:14:08.761Z,9.60
2023-04-26T05:16:38.589Z,9.76
2023-04-26T05:19:09.171Z,9.58
2023-04-26T05:21:37.435Z,8.93
2023-04-26T05:24:05.078Z,8.34
2023-04-26T05:26:32.587Z,8.02
2023-04-26T05:29:32.497Z,7.48
2023-04-26T05:32:06.036Z,7.16
2023-04-26T05:35:06.904Z,6.73
2023-04-26T05:37:35.819Z,7.18
2023-04-26T05:40:04.796Z,8.36
2023-04-26T05:42:32.353Z,9.18
2023-04-26T05:44:59.968Z,9.10
2023-04-26T05:47:28.616Z,9.80
2023-04-26T05:49:56.191Z,9.34
2023-04-26T05:52:23.814Z,9.86
2023-04-26T05:54:53.022Z,9.96
2023-04-26T05:57:20.617Z,8.99
2023-04-26T05:59:48.323Z,8.59
2023-04-26T06:02:17.586Z,9.32
2023-04-26T06:04:46.357Z,9.32
2023-04-26T06:07:17.533Z,9.44
2023-04-26T06:09:47.655Z,10.02
2023-04-26T06:12:15.453Z,10.37
2023-04-26T06:14:45.152Z,9.93
2023-04-26T06:17:17.191Z,9.86
2023-04-26T06:19:44.770Z,10.28
2023-04-26T06:22:12.763Z,10.61
2023-04-26T06:24:40.294Z,9.84
2023-04-26T06:27:08.335Z,9.85
2023-04-26T06:29:37.394Z,9.08
2023-04-26T06:32:05.241Z,9.17
2023-04-26T06:34:33.990Z,9.23
2023-04-26T06:37:01.560Z,9.46
2023-04-26T06:39:30.150Z,9.29
2023-04-26T06:41:57.599Z,9.01
2023-04-26T06:44:29.381Z,8.28
2023-04-26T06:47:02.958Z,8.35
2023-04-26T06:49:30.606Z,8.26
2023-04-26T06:51:58.217Z,7.98
2023-04-26T06:54:29.536Z,8.17
2023-04-26T06:56:58.773Z,7.97
2023-04-26T06:59:27.082Z,8.12
2023-04-26T07:01:54.941Z,7.59
2023-04-26T07:04:22.803Z,7.37
2023-04-26T07:06:51.334Z,8.09
2023-04-26T07:09:18.874Z,9.36
2023-04-26T07:11:47.623Z,10.33
2023-04-26T07:14:15.243Z,10.71
2023-04-26T07:16:42.776Z,11.42
2023-04-26T07:19:11.246Z,12.08
2023-04-26T07:21:38.754Z,12.08
2023-04-26T07:24:06.898Z,12.79
2023-04-26T07:26:36.016Z,11.96
2023-04-26T07:29:04.109Z,11.30
2023-04-26T07:31:32.377Z,11.20
2023-04-26T07:34:00.091Z,10.55
2023-04-26T07:36:28.116Z,9.99
2023-04-26T07:38:55.628Z,9.38
2023-04-26T07:41:23.238Z,9.08
2023-04-26T07:43:51.019Z,8.75
2023-04-26T07:46:18.859Z,8.44
2023-04-26T07:48:46.457Z,8.20
2023-04-26T07:51:14.164Z,7.81
2023-04-26T07:53:41.798Z,7.75
2023-04-26T07:56:09.713Z,7.86
2023-04-26T07:58:39.445Z,8.41
2023-04-26T08:01:07.225Z,9.26
2023-04-26T08:03:35.066Z,10.14
2023-04-26T08:06:02.975Z,11.05
2023-04-26T08:08:30.764Z,11.33
2023-04-26T08:10:58.263Z,11.51
2023-04-26T08:13:28.577Z,12.15
2023-04-26T08:15:56.876Z,12.02
2023-04-26T08:18:24.328Z,11.60
2023-04-26T08:20:51.866Z,10.75
2023-04-26T08:23:19.741Z,10.06
2023-04-26T08:25:48.015Z,9.22
2023-04-26T08:28:16.336Z,9.47
2023-04-26T08:30:43.894Z,9.95
2023-04-26T08:33:11.482Z,9.69
2023-04-26T08:35:38.980Z,9.33
2023-04-26T08:38:06.484Z,9.04
2023-04-26T08:40:34.270Z,8.84
2023-04-26T08:43:01.718Z,8.45
2023-04-26T08:45:29.251Z,8.33
2023-04-26T08:48:07.326Z,9.44
2023-04-26T08:50:38.060Z,10.67
2023-04-26T08:53:06.223Z,11.33
2023-04-26T08:55:35.949Z,11.76
2023-04-26T08:58:04.524Z,12.13
2023-04-26T09:00:32.221Z,12.31
2023-04-26T09:02:59.864Z,11.59
2023-04-26T09:05:27.492Z,11.15
2023-04-26T09:08:00.947Z,10.78
2023-04-26T09:10:28.556Z,9.90
2023-04-26T09:12:56.739Z,9.60
2023-04-26T09:15:26.593Z,9.19
2023-04-26T09:17:54.254Z,9.03
2023-04-26T09:20:29.519Z,9.15
2023-04-26T09:23:08.704Z,8.78
2023-04-26T09:25:37.314Z,9.07
2023-04-26T09:28:20.573Z,8.70
2023-04-26T09:30:48.997Z,8.58
2023-04-26T09:33:16.951Z,8.57
2023-04-26T09:35:44.750Z,8.77
2023-04-26T09:38:17.780Z,9.11
2023-04-26T09:40:46.313Z,9.17
2023-04-26T09:43:16.298Z,9.27
2023-04-26T09:45:49.104Z,9.81
2023-04-26T09:48:18.104Z,10.11
2023-04-26T09:50:46.508Z,10.21
2023-04-26T09:53:37.428Z,9.65
2023-04-26T09:56:36.383Z,9.52
2023-04-26T09:59:05.891Z,9.53
2023-04-26T10:01:34.204Z,8.84
2023-04-26T10:04:03.062Z,8.82
2023-04-26T10:06:30.827Z,8.51
2023-04-26T10:08:58.447Z,8.79
2023-04-26T10:11:27.034Z,9.24
2023-04-26T10:13:55.294Z,9.58
2023-04-26T10:16:23.798Z,10.32
2023-04-26T10:18:51.797Z,10.49
2023-04-26T10:21:37.219Z,10.49
2023-04-26T10:24:05.698Z,10.24
2023-04-26T10:26:54.599Z,9.88
2023-04-26T10:29:23.012Z,9.79
2023-04-26T10:32:03.001Z,9.69
2023-04-26T10:34:32.413Z,9.64
2023-04-26T10:37:16.293Z,9.96
2023-04-26T10:39:45.714Z,9.60
2023-04-26T10:42:26.795Z,10.77
2023-04-26T10:44:58.961Z,12.00
2023-04-26T10:47:36.093Z,12.84
2023-04-26T10:50:12.759Z,12.85
2023-04-26T10:53:05.945Z,11.84
2023-04-26T10:55:43.316Z,10.36
2023-04-26T10:58:34.866Z,9.78
2023-04-26T11:01:08.541Z,9.38
2023-04-26T11:03:38.811Z,9.58
2023-04-26T11:06:07.959Z,9.46
2023-04-26T11:08:36.996Z,10.03
2023-04-26T11:11:12.292Z,10.43
2023-04-26T11:13:42.163Z,10.56
2023-04-26T11:16:12.020Z,10.94
2023-04-26T11:18:42.497Z,10.72
2023-04-26T11:21:10.875Z,10.52
2023-04-26T11:23:38.661Z,10.57
2023-04-26T11:26:08.644Z,10.82
2023-04-26T11:28:38.463Z,11.36
2023-04-26T11:31:07.647Z,11.74
2023-04-26T11:33:35.333Z,11.69
2023-04-26T11:36:03.577Z,11.61
2023-04-26T11:38:31.112Z,11.70
2023-04-26T11:40:59.925Z,11.87
2023-04-26T11:43:38.067Z,10.95
2023-04-26T11:46:10.098Z,10.39
2023-04-26T11:48:39.227Z,10.15
2023-04-26T11:51:08.379Z,10.48
2023-04-26T11:53:43.355Z,10.49
2023-04-26T11:56:19.158Z,10.74
2023-04-26T11:58:47.866Z,10.55
2023-04-26T12:01:25.412Z,10.70
2023-04-26T12:03:58.733Z,11.38
2023-04-26T12:06:41.785Z,11.63
2023-04-26T12:09:09.747Z,11.53
2023-04-26T12:11:37.705Z,11.09
2023-04-26T12:14:06.169Z,11.10
2023-04-26T12:16:36.628Z,11.40
2023-04-26T12:19:08.253Z,11.20
2023-04-26T12:21:43.135Z,10.43
2023-04-26T12:24:25.296Z,9.91
2023-04-26T12:26:54.303Z,9.95
2023-04-26T12:29:21.803Z,9.84
2023-04-26T12:31:49.347Z,9.74
2023-04-26T12:34:16.924Z,9.55
2023-04-26T12:36:44.719Z,9.59
2023-04-26T12:39:14.575Z,9.33
2023-04-26T12:41:43.462Z,8.84
2023-04-26T12:44:11.798Z,9.15
2023-04-26T12:46:39.576Z,9.47
2023-04-26T12:49:07.742Z,9.76
2023-04-26T12:51:35.329Z,10.11
2023-04-26T12:54:03.138Z,10.11
2023-04-26T12:56:30.616Z,10.05
2023-04-26T12:58:58.287Z,9.96
2023-04-26T13:01:26.531Z,10.09
2023-04-26T13:03:55.764Z,10.29
2023-04-26T13:06:23.603Z,10.55
2023-04-26T13:08:51.288Z,10.27
2023-04-26T13:11:18.794Z,10.32
2023-04-26T13:13:46.434Z,10.29
2023-04-26T13:16:14.012Z,10.06
2023-04-26T13:18:41.861Z,10.25
2023-04-26T13:21:09.360Z,10.47
2023-04-26T13:23:36.936Z,10.54
2023-04-26T13:26:04.440Z,10.85
2023-04-26T13:28:32.100Z,11.44
2023-04-26T13:30:59.813Z,11.60
2023-04-26T13:33:27.508Z,11.80
2023-04-26T13:35:54.997Z,11.55
2023-04-26T13:38:22.467Z,11.13
2023-04-26T13:40:50.057Z,10.71
2023-04-26T13:43:17.851Z,10.61
2023-04-26T13:45:45.378Z,10.62
2023-04-26T13:48:13.272Z,10.44
2023-04-26T13:50:41.274Z,10.16
2023-04-26T13:53:08.794Z,10.08
2023-04-26T13:55:36.304Z,9.81
2023-04-26T13:58:03.969Z,9.86
2023-04-26T14:00:31.524Z,9.71
2023-04-26T14:02:59.153Z,9.85
2023-04-26T14:05:26.786Z,9.90
2023-04-26T14:07:55.365Z,10.06
2023-04-26T14:10:23.309Z,10.69
2023-04-26T14:12:50.945Z,10.91
2023-04-26T14:15:18.419Z,10.56
2023-04-26T14:17:47.137Z,10.59
2023-04-26T14:20:14.674Z,10.27
2023-04-26T14:22:42.187Z,10.08
2023-04-26T14:25:09.954Z,10.06
2023-04-26T14:27:39.605Z,10.09
2023-04-26T14:30:07.931Z,9.97
2023-04-26T14:32:35.497Z,10.03
2023-04-26T14:35:03.174Z,10.13
2023-04-26T14:37:30.681Z,10.10
2023-04-26T14:39:58.165Z,10.21
2023-04-26T14:42:25.628Z,10.24
2023-04-26T14:44:53.172Z,10.29
2023-04-26T14:47:20.813Z,10.37
2023-04-26T14:49:48.721Z,10.32
2023-04-26T14:52:16.513Z,10.24
2023-04-26T14:54:44.172Z,10.38
2023-04-26T14:57:12.025Z,10.46
2023-04-26T14:59:39.481Z,10.65
2023-04-26T15:02:07.384Z,10.56
2023-04-26T15:04:37.132Z,10.17
2023-04-26T15:07:04.810Z,10.24
2023-04-26T15:09:32.777Z,9.97
2023-04-26T15:12:02.626Z,9.82
2023-04-26T15:14:30.463Z,9.83
2023-04-26T15:16:58.402Z,9.81
2023-04-26T15:19:25.927Z,9.44
2023-04-26T15:21:53.481Z,9.58
2023-04-26T15:24:20.920Z,9.68
2023-04-26T15:26:48.368Z,9.58
2023-04-26T15:29:15.864Z,9.62
2023-04-26T15:31:43.430Z,9.59
2023-04-26T15:34:10.911Z,9.26
2023-04-26T15:36:38.401Z,9.24
2023-04-26T15:39:05.905Z,9.18
2023-04-26T15:41:33.423Z,9.16
2023-04-26T15:44:00.950Z,9.06
2023-04-26T15:46:28.505Z,9.03
2023-04-26T15:48:56.131Z,8.95
2023-04-26T15:51:23.631Z,8.60
2023-04-26T15:53:51.603Z,8.70
2023-04-26T15:56:19.600Z,8.70
2023-04-26T15:58:47.796Z,8.75
2023-04-26T16:01:15.604Z,8.76
2023-04-26T16:03:47.180Z,8.87
2023-04-26T16:06:15.680Z,9.05
2023-04-26T16:08:43.433Z,9.21
2023-04-26T16:11:11.334Z,9.12
2023-04-26T16:13:38.868Z,9.10
2023-04-26T16:16:09.049Z,9.19
2023-04-26T16:18:39.729Z,9.00
2023-04-26T16:21:09.859Z,8.85
2023-04-26T16:23:38.291Z,8.80
2023-04-26T16:26:06.121Z,8.56
2023-04-26T16:28:33.697Z,8.37
2023-04-26T16:31:01.605Z,8.31
2023-04-26T16:33:29.159Z,8.28
2023-04-26T16:35:56.694Z,8.22
2023-04-26T16:38:24.342Z,8.17
2023-04-26T16:40:59.324Z,8.10
2023-04-26T16:43:30.803Z,8.07
2023-04-26T16:46:06.020Z,8.11
2023-04-26T16:48:36.663Z,8.16
2023-04-26T16:51:07.441Z,8.17
2023-04-26T16:53:37.779Z,8.29
2023-04-26T16:56:05.996Z,8.27
2023-04-26T16:58:33.436Z,8.31
2023-04-26T17:01:01.210Z,8.37
2023-04-26T17:03:29.032Z,8.45
2023-04-26T17:05:56.740Z,8.59
2023-04-26T17:08:24.276Z,8.49
2023-04-26T17:10:52.023Z,8.45
2023-04-26T17:13:19.922Z,8.28
2023-04-26T17:15:47.757Z,8.27
2023-04-26T17:18:15.265Z,8.15
2023-04-26T17:20:42.802Z,8.09
2023-04-26T17:23:10.331Z,8.00
2023-04-26T17:25:37.841Z,7.91
2023-04-26T17:28:05.468Z,7.84
2023-04-26T17:30:33.482Z,7.75
2023-04-26T17:33:01.052Z,7.64
2023-04-26T17:35:28.532Z,7.63
2023-04-26T17:37:56.102Z,7.64
2023-04-26T17:40:23.601Z,7.62
2023-04-26T17:42:51.108Z,7.62
2023-04-26T17:45:18.690Z,7.51
2023-04-26T17:47:46.233Z,7.52
2023-04-26T17:50:13.900Z,7.56
2023-04-26T17:52:42.102Z,7.57
2023-04-26T17:55:10.221Z,7.55
2023-04-26T17:57:38.266Z,7.46
2023-04-26T18:00:12.840Z,7.41
2023-04-26T18:02:43.371Z,7.36
2023-04-26T18:05:11.180Z,7.26
2023-04-26T18:07:38.826Z,7.29
2023-04-26T18:10:06.840Z,7.22
2023-04-26T18:12:34.580Z,7.15
2023-04-26T18:15:02.458Z,7.06
2023-04-26T18:17:29.932Z,6.90
2023-04-26T18:19:57.474Z,6.86
2023-04-26T18:22:25.012Z,6.74
2023-04-26T18:24:52.607Z,6.71
2023-04-26T18:27:20.075Z,6.71
2023-04-26T18:29:49.304Z,6.64
2023-04-26T18:32:16.931Z,6.66
2023-04-26T18:34:44.441Z,6.68
2023-04-26T18:37:11.854Z,6.66
2023-04-26T18:39:39.380Z,6.62
2023-04-26T18:42:07.260Z,6.54
2023-04-26T18:44:34.757Z,6.60
2023-04-26T18:47:02.291Z,6.51
2023-04-26T18:49:29.708Z,6.51
2023-04-26T18:51:57.526Z,6.54
2023-04-26T18:54:26.401Z,6.57
2023-04-26T18:56:54.292Z,6.56
2023-04-26T18:59:21.821Z,6.58
2023-04-26T19:01:49.434Z,6.58
2023-04-26T19:04:17.265Z,6.57
2023-04-26T19:06:44.850Z,6.58
2023-04-26T19:09:13.063Z,6.53
2023-04-26T19:11:40.652Z,6.53
2023-04-26T19:14:08.185Z,6.49
2023-04-26T19:16:35.820Z,6.50
2023-04-26T19:19:03.467Z,6.49
2023-04-26T19:21:32.140Z,6.48
2023-04-26T19:23:59.643Z,6.49
2023-04-26T19:26:27.195Z,6.48
2023-04-26T19:28:55.932Z,6.47
2023-04-26T19:31:23.652Z,6.44
2023-04-26T19:33:51.255Z,6.44
2023-04-26T19:36:18.762Z,6.41
2023-04-26T19:38:48.467Z,6.37
2023-04-26T19:41:16.176Z,6.32
2023-04-26T19:43:43.625Z,6.28
2023-04-26T19:46:15.564Z,6.26
2023-04-26T19:48:43.325Z,6.22
2023-04-26T19:51:17.857Z,6.24
2023-04-26T19:53:45.571Z,6.20
2023-04-26T19:56:13.068Z,6.19
2023-04-26T19:58:40.739Z,6.18
2023-04-26T20:01:08.348Z,6.21
2023-04-26T20:03:37.674Z,6.22
2023-04-26T20:06:05.329Z,6.19
2023-04-26T20:08:32.812Z,6.17
2023-04-26T20:11:04.563Z,6.13
2023-04-26T20:13:32.618Z,6.10
2023-04-26T20:16:00.177Z,6.09
2023-04-26T20:18:27.750Z,6.10
2023-04-26T20:20:55.314Z,6.14
2023-04-26T20:23:22.887Z,6.10
2023-04-26T20:25:51.280Z,5.98
2023-04-26T20:28:19.028Z,5.87
2023-04-26T20:30:46.749Z,5.73
2023-04-26T20:33:14.578Z,5.64
2023-04-26T20:35:42.275Z,5.57
2023-04-26T20:38:09.815Z,5.47
2023-04-26T20:40:37.731Z,5.40
2023-04-26T20:43:05.178Z,5.35
2023-04-26T20:45:32.799Z,5.35
2023-04-26T20:48:00.366Z,5.26
2023-04-26T20:50:28.012Z,5.17
2023-04-26T20:52:55.594Z,5.12
2023-04-26T20:55:23.294Z,5.06
2023-04-26T20:57:50.897Z,5.04
2023-04-26T21:00:18.715Z,4.99
2023-04-26T21:02:46.330Z,4.97
2023-04-26T21:05:13.908Z,4.92
2023-04-26T21:07:41.335Z,4.89
2023-04-26T21:10:09.659Z,4.86
2023-04-26T21:12:37.253Z,4.77
2023-04-26T21:15:06.207Z,4.69
2023-04-26T21:17:35.452Z,4.65
2023-04-26T21:20:03.249Z,4.57
2023-04-26T21:22:30.668Z,4.44
2023-04-26T21:24:58.121Z,4.31
2023-04-26T21:27:25.642Z,4.16
2023-04-26T21:29:53.018Z,4.06
2023-04-26T21:32:20.582Z,3.98
2023-04-26T21:34:48.030Z,3.90
2023-04-26T21:37:16.839Z,3.87
2023-04-26T21:39:44.300Z,3.88
2023-04-26T21:42:11.881Z,3.87
2023-04-26T21:44:39.341Z,3.79
2023-04-26T21:47:06.976Z,3.77
2023-04-26T21:49:35.593Z,3.73
2023-04-26T21:52:03.094Z,3.70
2023-04-26T21:54:30.851Z,3.68
2023-04-26T21:56:58.276Z,3.70
2023-04-26T21:59:25.850Z,3.67
2023-04-26T22:01:53.321Z,3.63
2023-04-26T22:04:21.002Z,3.59
2023-04-26T22:06:48.633Z,3.57
2023-04-26T22:09:16.049Z,3.53
2023-04-26T22:11:43.566Z,3.51
2023-04-26T22:14:11.090Z,3.49
2023-04-26T22:16:38.735Z,3.47
2023-04-26T22:19:06.187Z,3.40
2023-04-26T22:21:33.686Z,3.35
2023-04-26T22:24:01.296Z,3.32
2023-04-26T22:26:28.896Z,3.31
2023-04-26T22:30:20.326Z,3.27
2023-04-26T22:32:55.707Z,3.24
2023-04-26T22:35:25.324Z,3.21
2023-04-26T22:37:53.064Z,3.20
2023-04-26T22:40:20.645Z,3.20
2023-04-26T22:42:48.215Z,3.17
2023-04-26T22:45:16.028Z,3.15
2023-04-26T22:47:43.491Z,3.11
2023-04-26T22:50:11.550Z,3.08
2023-04-26T22:52:39.182Z,3.06
2023-04-26T22:55:07.298Z,3.01
2023-04-26T22:57:34.711Z,2.96
2023-04-26T23:00:02.224Z,2.92
2023-04-26T23:02:29.783Z,2.92
2023-04-26T23:04:57.309Z,2.91
2023-04-26T23:07:25.161Z,2.88
2023-04-26T23:09:52.682Z,2.87
2023-04-26T23:12:20.353Z,2.83
2023-04-26T23:14:48.847Z,2.82
2023-04-26T23:17:16.654Z,2.81
2023-04-26T23:19:44.128Z,2.76
2023-04-26T23:22:11.579Z,2.79
2023-04-26T23:24:39.003Z,2.76
2023-04-26T23:27:06.605Z,2.75
2023-04-26T23:29:33.971Z,2.71
2023-04-26T23:32:02.764Z,2.68
2023-04-26T23:34:30.171Z,2.65
2023-04-26T23:36:58.959Z,2.67
2023-04-26T23:39:36.153Z,2.68
2023-04-26T23:42:04.073Z,2.66
2023-04-26T23:44:31.576Z,2.66
2023-04-26T23:46:58.917Z,2.67
2023-04-26T23:49:26.504Z,2.67
2023-04-26T23:51:53.941Z,2.65
2023-04-26T23:54:21.429Z,2.64
2023-04-26T23:56:49.006Z,2.62
2023-04-26T23:59:16.935Z,2.66
